Canterbury, New Hampshire
Current Conditions -  °F | °C
As of 3:51 PM on Thursday 18 Dec 2014 (Local Time) from KCON Reporting Station
Overcast Overcast  
Wind Chill: 30°   Ceiling: 3400
Heat Index: 37°   Visibility: 10mi
Dew Point: 28°   Wind: 10mph
Humidity: 70%   Direction: 290°WNW
Pressure: 29.78"   Gusts: NA
Location:  43.34°N, 71.57°W
Report Text: KCON 182051Z AUTO 29009KT 10SM OVC034 03/M02 A2978 RMK AO2 SLP088 T00281022 53013
Loading
Personal Weather Stations






























Interactive Weather Map New forecast layout! Learn more

10-Day Weather Forecast

Advertisements
Track Severe Weather on mobile